sensor_id;sensor_type;location;lat;lon;timestamp;P1;durP1;ratioP1;P2;durP2;ratioP2
74309;SDS011;62722;51.142;17.052;2023-02-28T00:01:06;27.67;;;11.00;;
74309;SDS011;62722;51.142;17.052;2023-02-28T00:03:33;23.75;;;11.10;;
74309;SDS011;62722;51.142;17.052;2023-02-28T00:06:02;23.75;;;10.52;;
74309;SDS011;62722;51.142;17.052;2023-02-28T00:08:31;25.88;;;11.00;;
74309;SDS011;62722;51.142;17.052;2023-02-28T00:11:00;24.00;;;10.77;;
74309;SDS011;62722;51.142;17.052;2023-02-28T00:13:29;26.85;;;11.43;;
74309;SDS011;62722;51.142;17.052;2023-02-28T00:16:00;29.77;;;11.38;;
74309;SDS011;62722;51.142;17.052;2023-02-28T00:18:29;27.55;;;12.00;;
74309;SDS011;62722;51.142;17.052;2023-02-28T00:20:58;38.10;;;14.52;;
74309;SDS011;62722;51.142;17.052;2023-02-28T00:23:26;29.67;;;13.05;;
74309;SDS011;62722;51.142;17.052;2023-02-28T00:25:56;33.00;;;13.93;;
74309;SDS011;62722;51.142;17.052;2023-02-28T00:28:23;30.10;;;13.63;;
74309;SDS011;62722;51.142;17.052;2023-02-28T00:30:51;29.67;;;12.82;;
74309;SDS011;62722;51.142;17.052;2023-02-28T00:33:19;30.05;;;12.75;;
74309;SDS011;62722;51.142;17.052;2023-02-28T00:35:46;33.28;;;12.98;;
74309;SDS011;62722;51.142;17.052;2023-02-28T00:38:14;28.77;;;12.20;;
74309;SDS011;62722;51.142;17.052;2023-02-28T00:40:42;32.63;;;12.68;;
74309;SDS011;62722;51.142;17.052;2023-02-28T00:43:11;29.83;;;12.18;;
74309;SDS011;62722;51.142;17.052;2023-02-28T00:45:39;33.58;;;12.82;;
74309;SDS011;62722;51.142;17.052;2023-02-28T00:48:06;32.00;;;13.23;;
74309;SDS011;62722;51.142;17.052;2023-02-28T00:50:33;23.98;;;10.57;;
74309;SDS011;62722;51.142;17.052;2023-02-28T00:53:01;25.55;;;10.50;;
74309;SDS011;62722;51.142;17.052;2023-02-28T00:55:28;24.85;;;11.15;;
74309;SDS011;62722;51.142;17.052;2023-02-28T00:57:56;27.10;;;10.85;;
74309;SDS011;62722;51.142;17.052;2023-02-28T01:00:25;27.40;;;11.32;;
74309;SDS011;62722;51.142;17.052;2023-02-28T01:02:52;30.35;;;11.95;;
74309;SDS011;62722;51.142;17.052;2023-02-28T01:05:19;28.13;;;12.68;;
74309;SDS011;62722;51.142;17.052;2023-02-28T01:07:47;31.50;;;12.02;;
74309;SDS011;62722;51.142;17.052;2023-02-28T01:10:14;29.02;;;12.27;;
74309;SDS011;62722;51.142;17.052;2023-02-28T01:12:42;28.45;;;11.68;;
74309;SDS011;62722;51.142;17.052;2023-02-28T01:15:10;27.63;;;11.88;;
74309;SDS011;62722;51.142;17.052;2023-02-28T01:17:39;27.30;;;11.93;;
74309;SDS011;62722;51.142;17.052;2023-02-28T01:20:07;30.33;;;12.50;;
74309;SDS011;62722;51.142;17.052;2023-02-28T01:22:37;30.08;;;12.85;;
74309;SDS011;62722;51.142;17.052;2023-02-28T01:25:04;24.38;;;11.05;;
74309;SDS011;62722;51.142;17.052;2023-02-28T01:27:33;26.73;;;10.88;;
74309;SDS011;62722;51.142;17.052;2023-02-28T01:30:01;30.02;;;11.43;;
74309;SDS011;62722;51.142;17.052;2023-02-28T01:32:29;27.27;;;11.20;;
74309;SDS011;62722;51.142;17.052;2023-02-28T01:34:57;24.77;;;10.60;;
74309;SDS011;62722;51.142;17.052;2023-02-28T01:37:25;25.88;;;12.45;;
74309;SDS011;62722;51.142;17.052;2023-02-28T01:39:52;24.65;;;10.40;;
74309;SDS011;62722;51.142;17.052;2023-02-28T01:42:19;28.55;;;10.82;;
74309;SDS011;62722;51.142;17.052;2023-02-28T01:47:43;21.63;;;10.23;;
74309;SDS011;62722;51.142;17.052;2023-02-28T01:50:14;25.20;;;10.18;;
74309;SDS011;62722;51.142;17.052;2023-02-28T01:52:45;24.08;;;11.15;;
74309;SDS011;62722;51.142;17.052;2023-02-28T01:55:13;22.77;;;10.55;;
74309;SDS011;62722;51.142;17.052;2023-02-28T01:57:45;25.10;;;10.05;;
74309;SDS011;62722;51.142;17.052;2023-02-28T02:00:16;25.33;;;9.93;;
74309;SDS011;62722;51.142;17.052;2023-02-28T02:02:46;24.55;;;10.95;;
74309;SDS011;62722;51.142;17.052;2023-02-28T02:05:18;29.50;;;11.70;;
74309;SDS011;62722;51.142;17.052;2023-02-28T02:07:50;25.58;;;11.20;;
74309;SDS011;62722;51.142;17.052;2023-02-28T02:10:21;26.58;;;10.55;;
74309;SDS011;62722;51.142;17.052;2023-02-28T02:15:58;34.70;;;12.55;;
74309;SDS011;62722;51.142;17.052;2023-02-28T02:18:32;32.40;;;12.90;;
74309;SDS011;62722;51.142;17.052;2023-02-28T02:21:14;28.23;;;12.45;;
74309;SDS011;62722;51.142;17.052;2023-02-28T02:24:03;29.38;;;11.30;;
74309;SDS011;62722;51.142;17.052;2023-02-28T02:26:55;30.70;;;12.40;;
74309;SDS011;62722;51.142;17.052;2023-02-28T02:35:34;21.63;;;9.32;;
74309;SDS011;62722;51.142;17.052;2023-02-28T02:38:11;23.30;;;9.65;;
74309;SDS011;62722;51.142;17.052;2023-02-28T02:40:46;26.20;;;9.65;;
74309;SDS011;62722;51.142;17.052;2023-02-28T02:43:22;28.38;;;10.07;;
74309;SDS011;62722;51.142;17.052;2023-02-28T02:45:56;23.00;;;10.00;;
74309;SDS011;62722;51.142;17.052;2023-02-28T02:48:30;24.00;;;9.90;;
74309;SDS011;62722;51.142;17.052;2023-02-28T02:53:37;22.95;;;9.18;;
74309;SDS011;62722;51.142;17.052;2023-02-28T02:56:10;24.98;;;10.05;;
74309;SDS011;62722;51.142;17.052;2023-02-28T02:58:41;26.65;;;10.85;;
74309;SDS011;62722;51.142;17.052;2023-02-28T03:01:12;22.90;;;10.43;;
74309;SDS011;62722;51.142;17.052;2023-02-28T03:03:43;26.95;;;10.85;;
74309;SDS011;62722;51.142;17.052;2023-02-28T03:06:12;24.08;;;10.15;;
74309;SDS011;62722;51.142;17.052;2023-02-28T03:08:41;29.58;;;11.82;;
74309;SDS011;62722;51.142;17.052;2023-02-28T03:11:11;27.63;;;10.93;;
74309;SDS011;62722;51.142;17.052;2023-02-28T03:13:46;22.95;;;10.80;;
74309;SDS011;62722;51.142;17.052;2023-02-28T03:22:18;21.52;;;10.15;;
74309;SDS011;62722;51.142;17.052;2023-02-28T03:24:54;27.08;;;9.88;;
74309;SDS011;62722;51.142;17.052;2023-02-28T03:27:27;23.05;;;9.30;;
74309;SDS011;62722;51.142;17.052;2023-02-28T03:29:58;22.45;;;10.45;;
74309;SDS011;62722;51.142;17.052;2023-02-28T03:32:31;23.63;;;10.52;;
74309;SDS011;62722;51.142;17.052;2023-02-28T03:35:06;22.73;;;10.27;;
74309;SDS011;62722;51.142;17.052;2023-02-28T03:37:40;26.08;;;9.65;;
74309;SDS011;62722;51.142;17.052;2023-02-28T03:40:11;24.33;;;10.10;;
74309;SDS011;62722;51.142;17.052;2023-02-28T03:42:44;22.83;;;10.75;;
74309;SDS011;62722;51.142;17.052;2023-02-28T03:45:15;27.83;;;10.90;;
74309;SDS011;62722;51.142;17.052;2023-02-28T03:47:46;26.25;;;10.05;;
74309;SDS011;62722;51.142;17.052;2023-02-28T03:50:18;23.80;;;10.27;;
74309;SDS011;62722;51.142;17.052;2023-02-28T03:52:50;20.45;;;9.90;;
74309;SDS011;62722;51.142;17.052;2023-02-28T03:55:25;22.70;;;10.13;;
74309;SDS011;62722;51.142;17.052;2023-02-28T03:57:58;22.88;;;9.48;;
74309;SDS011;62722;51.142;17.052;2023-02-28T04:00:33;25.42;;;11.68;;
74309;SDS011;62722;51.142;17.052;2023-02-28T04:03:02;26.13;;;12.70;;
74309;SDS011;62722;51.142;17.052;2023-02-28T04:05:30;31.00;;;11.68;;
74309;SDS011;62722;51.142;17.052;2023-02-28T04:08:04;27.83;;;10.77;;
74309;SDS011;62722;51.142;17.052;2023-02-28T04:10:33;23.58;;;10.30;;
74309;SDS011;62722;51.142;17.052;2023-02-28T04:13:00;23.02;;;10.25;;
74309;SDS011;62722;51.142;17.052;2023-02-28T04:15:27;25.13;;;9.98;;
74309;SDS011;62722;51.142;17.052;2023-02-28T04:17:55;24.77;;;10.65;;
74309;SDS011;62722;51.142;17.052;2023-02-28T04:20:22;42.90;;;18.88;;
74309;SDS011;62722;51.142;17.052;2023-02-28T04:22:49;35.30;;;15.48;;
74309;SDS011;62722;51.142;17.052;2023-02-28T04:25:21;27.95;;;12.90;;
74309;SDS011;62722;51.142;17.052;2023-02-28T04:27:48;27.73;;;12.25;;
74309;SDS011;62722;51.142;17.052;2023-02-28T04:30:16;32.75;;;13.40;;
74309;SDS011;62722;51.142;17.052;2023-02-28T04:32:43;27.80;;;13.18;;
74309;SDS011;62722;51.142;17.052;2023-02-28T04:35:10;25.55;;;11.60;;
74309;SDS011;62722;51.142;17.052;2023-02-28T04:37:38;28.90;;;11.75;;
74309;SDS011;62722;51.142;17.052;2023-02-28T04:40:06;24.75;;;10.10;;
74309;SDS011;62722;51.142;17.052;2023-02-28T04:42:35;23.50;;;10.38;;
74309;SDS011;62722;51.142;17.052;2023-02-28T04:45:03;26.00;;;10.98;;
74309;SDS011;62722;51.142;17.052;2023-02-28T04:47:31;22.88;;;10.48;;
74309;SDS011;62722;51.142;17.052;2023-02-28T04:49:59;23.45;;;10.15;;
74309;SDS011;62722;51.142;17.052;2023-02-28T04:52:27;23.98;;;10.25;;
74309;SDS011;62722;51.142;17.052;2023-02-28T04:54:54;23.67;;;10.75;;
74309;SDS011;62722;51.142;17.052;2023-02-28T04:57:21;24.15;;;10.55;;
74309;SDS011;62722;51.142;17.052;2023-02-28T04:59:51;22.95;;;10.68;;
74309;SDS011;62722;51.142;17.052;2023-02-28T05:02:18;22.02;;;10.20;;
74309;SDS011;62722;51.142;17.052;2023-02-28T05:04:46;24.15;;;10.02;;
74309;SDS011;62722;51.142;17.052;2023-02-28T05:07:14;25.02;;;9.68;;
74309;SDS011;62722;51.142;17.052;2023-02-28T05:09:41;24.30;;;9.48;;
74309;SDS011;62722;51.142;17.052;2023-02-28T05:12:08;26.77;;;10.93;;
74309;SDS011;62722;51.142;17.052;2023-02-28T05:14:36;24.85;;;11.63;;
74309;SDS011;62722;51.142;17.052;2023-02-28T05:17:05;25.70;;;11.13;;
74309;SDS011;62722;51.142;17.052;2023-02-28T05:19:32;24.88;;;9.73;;
74309;SDS011;62722;51.142;17.052;2023-02-28T05:21:59;23.88;;;10.48;;
74309;SDS011;62722;51.142;17.052;2023-02-28T05:24:28;25.83;;;10.90;;
74309;SDS011;62722;51.142;17.052;2023-02-28T05:26:55;26.73;;;11.80;;
74309;SDS011;62722;51.142;17.052;2023-02-28T05:29:23;19.90;;;9.52;;
74309;SDS011;62722;51.142;17.052;2023-02-28T05:31:50;26.58;;;10.45;;
74309;SDS011;62722;51.142;17.052;2023-02-28T05:34:20;25.27;;;10.07;;
74309;SDS011;62722;51.142;17.052;2023-02-28T05:36:47;25.17;;;11.15;;
74309;SDS011;62722;51.142;17.052;2023-02-28T05:39:14;24.05;;;10.48;;
74309;SDS011;62722;51.142;17.052;2023-02-28T05:41:42;22.35;;;9.85;;
74309;SDS011;62722;51.142;17.052;2023-02-28T05:44:10;26.63;;;10.82;;
74309;SDS011;62722;51.142;17.052;2023-02-28T05:46:37;20.95;;;10.00;;
74309;SDS011;62722;51.142;17.052;2023-02-28T05:49:05;26.05;;;10.25;;
74309;SDS011;62722;51.142;17.052;2023-02-28T05:51:34;25.15;;;10.98;;
74309;SDS011;62722;51.142;17.052;2023-02-28T05:54:05;23.75;;;10.15;;
74309;SDS011;62722;51.142;17.052;2023-02-28T05:56:32;27.15;;;11.63;;
74309;SDS011;62722;51.142;17.052;2023-02-28T05:59:01;30.17;;;12.10;;
74309;SDS011;62722;51.142;17.052;2023-02-28T06:01:32;25.92;;;12.20;;
74309;SDS011;62722;51.142;17.052;2023-02-28T06:04:02;23.02;;;10.63;;
74309;SDS011;62722;51.142;17.052;2023-02-28T06:06:31;24.10;;;10.40;;
74309;SDS011;62722;51.142;17.052;2023-02-28T06:09:01;26.00;;;11.52;;
74309;SDS011;62722;51.142;17.052;2023-02-28T06:11:28;29.00;;;12.75;;
74309;SDS011;62722;51.142;17.052;2023-02-28T06:13:56;29.95;;;12.13;;
74309;SDS011;62722;51.142;17.052;2023-02-28T06:16:25;31.23;;;12.77;;
74309;SDS011;62722;51.142;17.052;2023-02-28T06:18:53;24.77;;;11.70;;
74309;SDS011;62722;51.142;17.052;2023-02-28T06:21:21;23.40;;;10.88;;
74309;SDS011;62722;51.142;17.052;2023-02-28T06:23:48;27.88;;;12.10;;
74309;SDS011;62722;51.142;17.052;2023-02-28T06:26:17;22.55;;;10.70;;
74309;SDS011;62722;51.142;17.052;2023-02-28T06:28:46;24.60;;;11.18;;
74309;SDS011;62722;51.142;17.052;2023-02-28T06:31:15;26.20;;;10.70;;
74309;SDS011;62722;51.142;17.052;2023-02-28T06:33:44;28.60;;;11.63;;
74309;SDS011;62722;51.142;17.052;2023-02-28T06:36:12;22.80;;;11.30;;
74309;SDS011;62722;51.142;17.052;2023-02-28T06:38:41;24.65;;;11.30;;
74309;SDS011;62722;51.142;17.052;2023-02-28T06:41:09;25.45;;;11.63;;
74309;SDS011;62722;51.142;17.052;2023-02-28T06:43:39;23.73;;;10.73;;
74309;SDS011;62722;51.142;17.052;2023-02-28T06:46:08;25.23;;;10.48;;
74309;SDS011;62722;51.142;17.052;2023-02-28T06:48:39;17.30;;;9.05;;
74309;SDS011;62722;51.142;17.052;2023-02-28T06:51:07;22.80;;;10.15;;
74309;SDS011;62722;51.142;17.052;2023-02-28T06:53:36;16.63;;;9.30;;
74309;SDS011;62722;51.142;17.052;2023-02-28T06:56:04;19.83;;;8.55;;
74309;SDS011;62722;51.142;17.052;2023-02-28T06:58:33;25.50;;;10.02;;
74309;SDS011;62722;51.142;17.052;2023-02-28T07:01:02;19.92;;;9.43;;
74309;SDS011;62722;51.142;17.052;2023-02-28T07:03:30;20.90;;;10.00;;
74309;SDS011;62722;51.142;17.052;2023-02-28T07:05:57;22.00;;;8.90;;
74309;SDS011;62722;51.142;17.052;2023-02-28T07:08:25;17.55;;;7.40;;
74309;SDS011;62722;51.142;17.052;2023-02-28T07:10:53;17.67;;;8.32;;
74309;SDS011;62722;51.142;17.052;2023-02-28T07:13:21;15.10;;;7.25;;
74309;SDS011;62722;51.142;17.052;2023-02-28T07:15:53;19.58;;;8.30;;
74309;SDS011;62722;51.142;17.052;2023-02-28T07:18:22;17.92;;;8.05;;
74309;SDS011;62722;51.142;17.052;2023-02-28T07:20:51;16.73;;;6.63;;
74309;SDS011;62722;51.142;17.052;2023-02-28T07:23:19;13.60;;;6.63;;
74309;SDS011;62722;51.142;17.052;2023-02-28T07:25:46;12.07;;;6.30;;
74309;SDS011;62722;51.142;17.052;2023-02-28T07:28:13;13.55;;;7.00;;
74309;SDS011;62722;51.142;17.052;2023-02-28T07:30:41;14.95;;;6.43;;
74309;SDS011;62722;51.142;17.052;2023-02-28T07:33:09;14.40;;;6.68;;
74309;SDS011;62722;51.142;17.052;2023-02-28T07:35:37;14.02;;;5.82;;
74309;SDS011;62722;51.142;17.052;2023-02-28T07:38:05;14.57;;;6.20;;
74309;SDS011;62722;51.142;17.052;2023-02-28T07:40:33;13.48;;;6.40;;
74309;SDS011;62722;51.142;17.052;2023-02-28T07:43:01;13.57;;;6.25;;
74309;SDS011;62722;51.142;17.052;2023-02-28T07:45:29;15.32;;;7.40;;
74309;SDS011;62722;51.142;17.052;2023-02-28T07:47:58;12.40;;;5.70;;
74309;SDS011;62722;51.142;17.052;2023-02-28T07:50:25;13.02;;;6.13;;
74309;SDS011;62722;51.142;17.052;2023-02-28T07:52:57;13.32;;;6.45;;
74309;SDS011;62722;51.142;17.052;2023-02-28T07:55:25;12.15;;;6.22;;
74309;SDS011;62722;51.142;17.052;2023-02-28T07:57:52;14.70;;;6.38;;
74309;SDS011;62722;51.142;17.052;2023-02-28T08:00:20;14.65;;;5.93;;
74309;SDS011;62722;51.142;17.052;2023-02-28T08:02:48;11.45;;;5.30;;
74309;SDS011;62722;51.142;17.052;2023-02-28T08:05:16;11.90;;;5.57;;
74309;SDS011;62722;51.142;17.052;2023-02-28T08:07:44;13.82;;;5.80;;
74309;SDS011;62722;51.142;17.052;2023-02-28T08:10:14;13.07;;;6.22;;
74309;SDS011;62722;51.142;17.052;2023-02-28T08:12:42;11.80;;;5.20;;
74309;SDS011;62722;51.142;17.052;2023-02-28T08:15:09;11.00;;;5.20;;
74309;SDS011;62722;51.142;17.052;2023-02-28T08:17:37;10.68;;;5.00;;
74309;SDS011;62722;51.142;17.052;2023-02-28T08:20:05;10.80;;;5.35;;
74309;SDS011;62722;51.142;17.052;2023-02-28T08:22:33;9.65;;;5.30;;
74309;SDS011;62722;51.142;17.052;2023-02-28T08:25:00;11.73;;;5.75;;
74309;SDS011;62722;51.142;17.052;2023-02-28T08:27:29;10.18;;;5.22;;
74309;SDS011;62722;51.142;17.052;2023-02-28T08:29:56;11.20;;;5.32;;
74309;SDS011;62722;51.142;17.052;2023-02-28T08:32:24;13.00;;;5.03;;
74309;SDS011;62722;51.142;17.052;2023-02-28T08:34:51;11.27;;;5.32;;
74309;SDS011;62722;51.142;17.052;2023-02-28T08:37:19;11.63;;;4.88;;
74309;SDS011;62722;51.142;17.052;2023-02-28T08:39:46;9.52;;;5.10;;
74309;SDS011;62722;51.142;17.052;2023-02-28T08:42:13;11.10;;;5.30;;
74309;SDS011;62722;51.142;17.052;2023-02-28T08:44:42;10.13;;;4.82;;
74309;SDS011;62722;51.142;17.052;2023-02-28T08:47:10;8.32;;;4.97;;
74309;SDS011;62722;51.142;17.052;2023-02-28T08:49:38;10.27;;;4.97;;
74309;SDS011;62722;51.142;17.052;2023-02-28T08:52:06;8.05;;;4.38;;
74309;SDS011;62722;51.142;17.052;2023-02-28T08:54:35;7.07;;;3.20;;
74309;SDS011;62722;51.142;17.052;2023-02-28T08:57:02;9.10;;;4.15;;
74309;SDS011;62722;51.142;17.052;2023-02-28T08:59:30;7.03;;;4.00;;
74309;SDS011;62722;51.142;17.052;2023-02-28T09:01:59;9.70;;;3.95;;
74309;SDS011;62722;51.142;17.052;2023-02-28T09:04:26;8.32;;;4.43;;
74309;SDS011;62722;51.142;17.052;2023-02-28T09:06:56;9.95;;;4.40;;
74309;SDS011;62722;51.142;17.052;2023-02-28T09:09:23;8.25;;;4.28;;
74309;SDS011;62722;51.142;17.052;2023-02-28T09:11:51;6.97;;;3.20;;
74309;SDS011;62722;51.142;17.052;2023-02-28T09:14:18;6.65;;;3.08;;
74309;SDS011;62722;51.142;17.052;2023-02-28T09:16:45;6.28;;;2.90;;
74309;SDS011;62722;51.142;17.052;2023-02-28T09:19:14;8.55;;;4.07;;
74309;SDS011;62722;51.142;17.052;2023-02-28T09:21:41;8.48;;;3.70;;
74309;SDS011;62722;51.142;17.052;2023-02-28T09:24:09;8.27;;;3.53;;
74309;SDS011;62722;51.142;17.052;2023-02-28T09:26:37;6.45;;;3.00;;
74309;SDS011;62722;51.142;17.052;2023-02-28T09:29:05;4.30;;;2.10;;
74309;SDS011;62722;51.142;17.052;2023-02-28T09:31:33;4.90;;;2.15;;
74309;SDS011;62722;51.142;17.052;2023-02-28T09:34:01;4.75;;;2.72;;
74309;SDS011;62722;51.142;17.052;2023-02-28T09:36:30;7.63;;;2.88;;
74309;SDS011;62722;51.142;17.052;2023-02-28T09:38:58;5.63;;;2.75;;
74309;SDS011;62722;51.142;17.052;2023-02-28T09:41:26;6.00;;;2.65;;
74309;SDS011;62722;51.142;17.052;2023-02-28T09:43:59;4.80;;;2.28;;
74309;SDS011;62722;51.142;17.052;2023-02-28T09:46:32;5.00;;;2.85;;
74309;SDS011;62722;51.142;17.052;2023-02-28T09:49:02;6.43;;;2.58;;
74309;SDS011;62722;51.142;17.052;2023-02-28T09:51:38;5.72;;;2.28;;
74309;SDS011;62722;51.142;17.052;2023-02-28T09:54:15;7.32;;;2.75;;
74309;SDS011;62722;51.142;17.052;2023-02-28T09:56:45;6.68;;;3.08;;
74309;SDS011;62722;51.142;17.052;2023-02-28T09:59:28;6.10;;;2.85;;
74309;SDS011;62722;51.142;17.052;2023-02-28T10:02:11;5.90;;;2.72;;
74309;SDS011;62722;51.142;17.052;2023-02-28T10:04:46;5.60;;;3.20;;
74309;SDS011;62722;51.142;17.052;2023-02-28T10:07:33;9.10;;;3.50;;
74309;SDS011;62722;51.142;17.052;2023-02-28T10:10:15;10.77;;;4.13;;
74309;SDS011;62722;51.142;17.052;2023-02-28T10:12:51;8.57;;;3.53;;
74309;SDS011;62722;51.142;17.052;2023-02-28T10:15:23;7.47;;;3.33;;
74309;SDS011;62722;51.142;17.052;2023-02-28T10:17:56;5.35;;;3.30;;
74309;SDS011;62722;51.142;17.052;2023-02-28T10:20:29;5.57;;;2.78;;
74309;SDS011;62722;51.142;17.052;2023-02-28T10:23:04;7.05;;;2.90;;
74309;SDS011;62722;51.142;17.052;2023-02-28T10:25:39;7.82;;;3.13;;
74309;SDS011;62722;51.142;17.052;2023-02-28T10:28:11;7.65;;;3.08;;
74309;SDS011;62722;51.142;17.052;2023-02-28T10:30:40;9.63;;;3.90;;
74309;SDS011;62722;51.142;17.052;2023-02-28T10:33:15;6.68;;;3.60;;
74309;SDS011;62722;51.142;17.052;2023-02-28T10:35:46;7.75;;;3.92;;
74309;SDS011;62722;51.142;17.052;2023-02-28T10:38:18;9.23;;;3.58;;
74309;SDS011;62722;51.142;17.052;2023-02-28T10:40:48;8.38;;;3.42;;
74309;SDS011;62722;51.142;17.052;2023-02-28T10:43:18;6.25;;;2.97;;
74309;SDS011;62722;51.142;17.052;2023-02-28T10:45:53;9.60;;;3.90;;
74309;SDS011;62722;51.142;17.052;2023-02-28T10:48:29;8.63;;;3.83;;
74309;SDS011;62722;51.142;17.052;2023-02-28T10:51:01;7.22;;;3.85;;
74309;SDS011;62722;51.142;17.052;2023-02-28T10:53:38;8.98;;;3.92;;
74309;SDS011;62722;51.142;17.052;2023-02-28T10:56:16;7.88;;;3.63;;
74309;SDS011;62722;51.142;17.052;2023-02-28T10:58:48;9.98;;;4.00;;
74309;SDS011;62722;51.142;17.052;2023-02-28T11:01:19;9.18;;;3.85;;
74309;SDS011;62722;51.142;17.052;2023-02-28T11:03:50;10.45;;;4.13;;
74309;SDS011;62722;51.142;17.052;2023-02-28T11:06:21;11.68;;;4.47;;
74309;SDS011;62722;51.142;17.052;2023-02-28T11:08:52;11.13;;;4.95;;
74309;SDS011;62722;51.142;17.052;2023-02-28T11:11:21;8.05;;;4.18;;
74309;SDS011;62722;51.142;17.052;2023-02-28T11:13:52;10.18;;;4.20;;
74309;SDS011;62722;51.142;17.052;2023-02-28T11:16:21;7.47;;;3.72;;
74309;SDS011;62722;51.142;17.052;2023-02-28T11:18:58;9.98;;;4.13;;
74309;SDS011;62722;51.142;17.052;2023-02-28T11:21:27;9.85;;;4.13;;
74309;SDS011;62722;51.142;17.052;2023-02-28T11:24:02;11.45;;;4.78;;
74309;SDS011;62722;51.142;17.052;2023-02-28T11:26:36;9.55;;;4.50;;
74309;SDS011;62722;51.142;17.052;2023-02-28T11:29:11;9.20;;;3.88;;
74309;SDS011;62722;51.142;17.052;2023-02-28T11:31:42;10.40;;;4.25;;
74309;SDS011;62722;51.142;17.052;2023-02-28T11:36:53;7.72;;;3.97;;
74309;SDS011;62722;51.142;17.052;2023-02-28T11:39:23;9.02;;;4.22;;
74309;SDS011;62722;51.142;17.052;2023-02-28T11:42:02;7.97;;;3.95;;
74309;SDS011;62722;51.142;17.052;2023-02-28T11:44:48;8.23;;;4.15;;
74309;SDS011;62722;51.142;17.052;2023-02-28T11:47:26;9.32;;;4.20;;
74309;SDS011;62722;51.142;17.052;2023-02-28T11:50:04;9.50;;;3.78;;
74309;SDS011;62722;51.142;17.052;2023-02-28T11:52:43;10.80;;;4.65;;
74309;SDS011;62722;51.142;17.052;2023-02-28T11:55:18;9.23;;;3.88;;
74309;SDS011;62722;51.142;17.052;2023-02-28T11:57:59;7.72;;;4.15;;
74309;SDS011;62722;51.142;17.052;2023-02-28T12:00:55;11.40;;;4.65;;
74309;SDS011;62722;51.142;17.052;2023-02-28T12:03:31;9.45;;;4.65;;
74309;SDS011;62722;51.142;17.052;2023-02-28T12:06:13;11.20;;;5.20;;
74309;SDS011;62722;51.142;17.052;2023-02-28T12:08:55;11.95;;;4.95;;
74309;SDS011;62722;51.142;17.052;2023-02-28T12:11:36;13.82;;;6.03;;
74309;SDS011;62722;51.142;17.052;2023-02-28T12:14:19;8.70;;;5.18;;
74309;SDS011;62722;51.142;17.052;2023-02-28T12:16:58;11.43;;;5.18;;
74309;SDS011;62722;51.142;17.052;2023-02-28T12:19:33;11.80;;;5.90;;
74309;SDS011;62722;51.142;17.052;2023-02-28T12:25:18;13.02;;;5.75;;
74309;SDS011;62722;51.142;17.052;2023-02-28T12:27:52;11.90;;;5.13;;
74309;SDS011;62722;51.142;17.052;2023-02-28T12:30:21;11.05;;;4.88;;
74309;SDS011;62722;51.142;17.052;2023-02-28T12:32:52;11.35;;;5.57;;
74309;SDS011;62722;51.142;17.052;2023-02-28T12:35:24;11.43;;;5.45;;
74309;SDS011;62722;51.142;17.052;2023-02-28T12:38:01;8.93;;;4.97;;
74309;SDS011;62722;51.142;17.052;2023-02-28T12:40:34;11.55;;;4.82;;
74309;SDS011;62722;51.142;17.052;2023-02-28T12:43:13;12.18;;;5.20;;
74309;SDS011;62722;51.142;17.052;2023-02-28T12:45:44;11.73;;;5.43;;
74309;SDS011;62722;51.142;17.052;2023-02-28T12:48:17;11.50;;;5.35;;
74309;SDS011;62722;51.142;17.052;2023-02-28T12:50:49;11.15;;;5.47;;
74309;SDS011;62722;51.142;17.052;2023-02-28T12:53:20;10.93;;;5.32;;
74309;SDS011;62722;51.142;17.052;2023-02-28T12:55:56;11.48;;;4.82;;
74309;SDS011;62722;51.142;17.052;2023-02-28T12:58:37;11.73;;;4.88;;
74309;SDS011;62722;51.142;17.052;2023-02-28T13:04:28;12.57;;;4.40;;
74309;SDS011;62722;51.142;17.052;2023-02-28T13:07:28;11.75;;;4.78;;
74309;SDS011;62722;51.142;17.052;2023-02-28T13:10:16;8.43;;;4.32;;
74309;SDS011;62722;51.142;17.052;2023-02-28T13:12:49;8.80;;;3.58;;
74309;SDS011;62722;51.142;17.052;2023-02-28T13:15:21;10.65;;;4.57;;
74309;SDS011;62722;51.142;17.052;2023-02-28T13:17:51;12.77;;;5.55;;
74309;SDS011;62722;51.142;17.052;2023-02-28T13:20:21;8.52;;;4.60;;
74309;SDS011;62722;51.142;17.052;2023-02-28T13:22:51;9.70;;;4.53;;
74309;SDS011;62722;51.142;17.052;2023-02-28T13:34:46;10.27;;;4.32;;
74309;SDS011;62722;51.142;17.052;2023-02-28T13:37:35;11.75;;;5.13;;
74309;SDS011;62722;51.142;17.052;2023-02-28T13:43:02;14.00;;;5.82;;
74309;SDS011;62722;51.142;17.052;2023-02-28T13:45:34;10.55;;;4.60;;
74309;SDS011;62722;51.142;17.052;2023-02-28T13:48:04;10.00;;;5.28;;
74309;SDS011;62722;51.142;17.052;2023-02-28T13:50:46;11.43;;;5.57;;
74309;SDS011;62722;51.142;17.052;2023-02-28T13:56:32;12.45;;;5.50;;
74309;SDS011;62722;51.142;17.052;2023-02-28T13:59:16;13.00;;;5.30;;
74309;SDS011;62722;51.142;17.052;2023-02-28T14:01:57;10.35;;;5.35;;
74309;SDS011;62722;51.142;17.052;2023-02-28T14:04:54;11.30;;;5.85;;
74309;SDS011;62722;51.142;17.052;2023-02-28T14:07:30;12.32;;;5.97;;
74309;SDS011;62722;51.142;17.052;2023-02-28T14:10:01;11.95;;;5.28;;
74309;SDS011;62722;51.142;17.052;2023-02-28T14:15:40;13.60;;;6.28;;
74309;SDS011;62722;51.142;17.052;2023-02-28T14:18:21;13.15;;;5.50;;
74309;SDS011;62722;51.142;17.052;2023-02-28T14:20:54;10.45;;;4.63;;
74309;SDS011;62722;51.142;17.052;2023-02-28T14:26:32;13.20;;;5.72;;
74309;SDS011;62722;51.142;17.052;2023-02-28T14:29:28;11.07;;;5.53;;
74309;SDS011;62722;51.142;17.052;2023-02-28T14:32:13;9.73;;;4.68;;
74309;SDS011;62722;51.142;17.052;2023-02-28T14:34:49;13.35;;;5.90;;
74309;SDS011;62722;51.142;17.052;2023-02-28T14:37:30;11.88;;;5.75;;
74309;SDS011;62722;51.142;17.052;2023-02-28T14:42:56;10.43;;;5.32;;
74309;SDS011;62722;51.142;17.052;2023-02-28T14:45:25;12.68;;;5.65;;
74309;SDS011;62722;51.142;17.052;2023-02-28T14:47:55;13.35;;;5.22;;
74309;SDS011;62722;51.142;17.052;2023-02-28T14:50:26;10.73;;;5.20;;
74309;SDS011;62722;51.142;17.052;2023-02-28T14:52:56;10.88;;;4.70;;
74309;SDS011;62722;51.142;17.052;2023-02-28T14:55:26;11.27;;;5.00;;
74309;SDS011;62722;51.142;17.052;2023-02-28T14:57:58;11.77;;;5.00;;
74309;SDS011;62722;51.142;17.052;2023-02-28T15:00:29;11.50;;;5.90;;
74309;SDS011;62722;51.142;17.052;2023-02-28T15:02:58;9.82;;;4.80;;
74309;SDS011;62722;51.142;17.052;2023-02-28T15:05:28;13.18;;;5.93;;
74309;SDS011;62722;51.142;17.052;2023-02-28T15:08:01;14.07;;;6.00;;
74309;SDS011;62722;51.142;17.052;2023-02-28T15:10:33;11.55;;;5.50;;
74309;SDS011;62722;51.142;17.052;2023-02-28T15:13:04;11.52;;;5.57;;
74309;SDS011;62722;51.142;17.052;2023-02-28T15:15:40;12.55;;;5.20;;
74309;SDS011;62722;51.142;17.052;2023-02-28T15:18:16;15.48;;;7.43;;
74309;SDS011;62722;51.142;17.052;2023-02-28T15:20:51;12.57;;;5.65;;
74309;SDS011;62722;51.142;17.052;2023-02-28T15:23:20;8.73;;;4.63;;
74309;SDS011;62722;51.142;17.052;2023-02-28T15:25:48;11.07;;;4.97;;
74309;SDS011;62722;51.142;17.052;2023-02-28T15:28:20;9.57;;;4.63;;
74309;SDS011;62722;51.142;17.052;2023-02-28T15:30:50;11.20;;;4.88;;
74309;SDS011;62722;51.142;17.052;2023-02-28T15:33:24;10.13;;;4.47;;
74309;SDS011;62722;51.142;17.052;2023-02-28T15:36:03;9.73;;;4.18;;